sensor_id;sensor_type;location;lat;lon;timestamp;P1;durP1;ratioP1;P2;durP2;ratioP2
67051;SDS011;53957;47.222;18.670;2023-02-15T00:00:51;18.30;;;9.70;;
67051;SDS011;53957;47.222;18.670;2023-02-15T00:03:54;15.98;;;10.00;;
67051;SDS011;53957;47.222;18.670;2023-02-15T00:06:56;19.58;;;11.40;;
67051;SDS011;53957;47.222;18.670;2023-02-15T00:10:00;18.08;;;11.23;;
67051;SDS011;53957;47.222;18.670;2023-02-15T00:13:02;15.88;;;10.45;;
67051;SDS011;53957;47.222;18.670;2023-02-15T00:16:08;20.75;;;11.35;;
67051;SDS011;53957;47.222;18.670;2023-02-15T00:19:13;21.30;;;12.45;;
67051;SDS011;53957;47.222;18.670;2023-02-15T00:22:18;19.30;;;11.68;;
67051;SDS011;53957;47.222;18.670;2023-02-15T00:25:21;22.15;;;11.70;;
67051;SDS011;53957;47.222;18.670;2023-02-15T00:28:24;22.10;;;10.27;;
67051;SDS011;53957;47.222;18.670;2023-02-15T00:31:30;13.95;;;10.25;;
67051;SDS011;53957;47.222;18.670;2023-02-15T00:34:36;17.98;;;10.68;;
67051;SDS011;53957;47.222;18.670;2023-02-15T00:37:39;12.98;;;9.40;;
67051;SDS011;53957;47.222;18.670;2023-02-15T00:40:42;10.40;;;7.57;;
67051;SDS011;53957;47.222;18.670;2023-02-15T00:43:45;13.48;;;8.52;;
67051;SDS011;53957;47.222;18.670;2023-02-15T00:46:48;14.02;;;8.57;;
67051;SDS011;53957;47.222;18.670;2023-02-15T00:49:51;15.20;;;9.48;;
67051;SDS011;53957;47.222;18.670;2023-02-15T00:52:54;11.43;;;8.43;;
67051;SDS011;53957;47.222;18.670;2023-02-15T00:55:57;12.90;;;8.25;;
67051;SDS011;53957;47.222;18.670;2023-02-15T00:59:02;11.35;;;7.55;;
67051;SDS011;53957;47.222;18.670;2023-02-15T01:02:05;11.25;;;8.55;;
67051;SDS011;53957;47.222;18.670;2023-02-15T01:05:08;14.13;;;8.30;;
67051;SDS011;53957;47.222;18.670;2023-02-15T01:08:12;9.95;;;7.65;;
67051;SDS011;53957;47.222;18.670;2023-02-15T01:11:17;14.48;;;8.75;;
67051;SDS011;53957;47.222;18.670;2023-02-15T01:14:25;11.10;;;7.85;;
67051;SDS011;53957;47.222;18.670;2023-02-15T01:17:28;17.02;;;9.77;;
67051;SDS011;53957;47.222;18.670;2023-02-15T01:20:33;14.65;;;9.32;;
67051;SDS011;53957;47.222;18.670;2023-02-15T01:23:38;12.32;;;8.23;;
67051;SDS011;53957;47.222;18.670;2023-02-15T01:26:41;16.73;;;8.73;;
67051;SDS011;53957;47.222;18.670;2023-02-15T01:29:47;13.30;;;7.40;;
67051;SDS011;53957;47.222;18.670;2023-02-15T01:32:49;12.05;;;9.35;;
67051;SDS011;53957;47.222;18.670;2023-02-15T01:35:57;14.40;;;9.05;;
67051;SDS011;53957;47.222;18.670;2023-02-15T01:39:01;9.48;;;8.02;;
67051;SDS011;53957;47.222;18.670;2023-02-15T01:42:09;12.23;;;9.00;;
67051;SDS011;53957;47.222;18.670;2023-02-15T01:48:24;11.45;;;7.40;;
67051;SDS011;53957;47.222;18.670;2023-02-15T01:51:31;12.48;;;7.85;;
67051;SDS011;53957;47.222;18.670;2023-02-15T01:54:37;11.07;;;7.45;;
67051;SDS011;53957;47.222;18.670;2023-02-15T01:57:43;14.30;;;8.82;;
67051;SDS011;53957;47.222;18.670;2023-02-15T02:00:48;12.15;;;8.02;;
67051;SDS011;53957;47.222;18.670;2023-02-15T02:04:28;10.52;;;8.63;;
67051;SDS011;53957;47.222;18.670;2023-02-15T02:07:27;13.93;;;8.05;;
67051;SDS011;53957;47.222;18.670;2023-02-15T02:10:35;20.02;;;9.93;;
67051;SDS011;53957;47.222;18.670;2023-02-15T02:13:39;11.38;;;8.50;;
67051;SDS011;53957;47.222;18.670;2023-02-15T02:16:51;12.00;;;8.32;;
67051;SDS011;53957;47.222;18.670;2023-02-15T02:23:46;10.90;;;8.52;;
67051;SDS011;53957;47.222;18.670;2023-02-15T02:37:12;11.88;;;7.68;;
67051;SDS011;53957;47.222;18.670;2023-02-15T02:47:38;14.07;;;7.45;;
67051;SDS011;53957;47.222;18.670;2023-02-15T02:50:46;13.05;;;8.85;;
67051;SDS011;53957;47.222;18.670;2023-02-15T02:53:50;12.02;;;9.23;;
67051;SDS011;53957;47.222;18.670;2023-02-15T02:56:55;12.88;;;8.88;;
67051;SDS011;53957;47.222;18.670;2023-02-15T03:00:02;14.52;;;9.40;;
67051;SDS011;53957;47.222;18.670;2023-02-15T03:03:09;11.70;;;8.05;;
67051;SDS011;53957;47.222;18.670;2023-02-15T03:06:25;12.93;;;10.18;;
67051;SDS011;53957;47.222;18.670;2023-02-15T03:09:33;10.18;;;8.25;;
67051;SDS011;53957;47.222;18.670;2023-02-15T03:12:47;15.27;;;9.02;;
67051;SDS011;53957;47.222;18.670;2023-02-15T03:15:51;14.32;;;8.45;;
67051;SDS011;53957;47.222;18.670;2023-02-15T03:19:16;14.65;;;9.05;;
67051;SDS011;53957;47.222;18.670;2023-02-15T03:22:29;15.45;;;8.63;;
67051;SDS011;53957;47.222;18.670;2023-02-15T03:25:46;11.18;;;8.27;;
67051;SDS011;53957;47.222;18.670;2023-02-15T03:29:03;10.68;;;7.55;;
67051;SDS011;53957;47.222;18.670;2023-02-15T03:32:09;9.95;;;7.10;;
67051;SDS011;53957;47.222;18.670;2023-02-15T03:35:14;15.45;;;9.50;;
67051;SDS011;53957;47.222;18.670;2023-02-15T03:38:20;11.73;;;8.63;;
67051;SDS011;53957;47.222;18.670;2023-02-15T03:41:39;18.10;;;9.45;;
67051;SDS011;53957;47.222;18.670;2023-02-15T03:45:11;12.70;;;7.72;;
67051;SDS011;53957;47.222;18.670;2023-02-15T03:48:19;11.70;;;8.10;;
67051;SDS011;53957;47.222;18.670;2023-02-15T03:51:37;12.93;;;9.50;;
67051;SDS011;53957;47.222;18.670;2023-02-15T03:54:43;15.20;;;7.87;;
67051;SDS011;53957;47.222;18.670;2023-02-15T03:57:49;14.38;;;9.05;;
67051;SDS011;53957;47.222;18.670;2023-02-15T04:01:13;11.32;;;8.13;;
67051;SDS011;53957;47.222;18.670;2023-02-15T04:04:44;12.13;;;8.07;;
67051;SDS011;53957;47.222;18.670;2023-02-15T04:07:49;12.23;;;7.82;;
67051;SDS011;53957;47.222;18.670;2023-02-15T04:10:53;13.80;;;8.43;;
67051;SDS011;53957;47.222;18.670;2023-02-15T04:13:56;14.10;;;8.60;;
67051;SDS011;53957;47.222;18.670;2023-02-15T04:16:59;11.23;;;7.95;;
67051;SDS011;53957;47.222;18.670;2023-02-15T04:20:02;14.80;;;8.98;;
67051;SDS011;53957;47.222;18.670;2023-02-15T04:23:24;10.23;;;7.68;;
67051;SDS011;53957;47.222;18.670;2023-02-15T04:26:45;11.88;;;8.75;;
67051;SDS011;53957;47.222;18.670;2023-02-15T04:29:50;12.57;;;8.57;;
67051;SDS011;53957;47.222;18.670;2023-02-15T04:32:54;15.77;;;8.10;;
67051;SDS011;53957;47.222;18.670;2023-02-15T04:35:59;9.85;;;7.15;;
67051;SDS011;53957;47.222;18.670;2023-02-15T04:39:03;13.50;;;8.63;;
67051;SDS011;53957;47.222;18.670;2023-02-15T04:42:06;14.93;;;8.93;;
67051;SDS011;53957;47.222;18.670;2023-02-15T04:45:10;16.12;;;7.95;;
67051;SDS011;53957;47.222;18.670;2023-02-15T04:48:13;16.25;;;8.23;;
67051;SDS011;53957;47.222;18.670;2023-02-15T04:51:15;17.35;;;7.47;;
67051;SDS011;53957;47.222;18.670;2023-02-15T04:54:19;13.45;;;8.52;;
67051;SDS011;53957;47.222;18.670;2023-02-15T04:57:21;10.18;;;8.25;;
67051;SDS011;53957;47.222;18.670;2023-02-15T05:00:26;16.92;;;8.07;;
67051;SDS011;53957;47.222;18.670;2023-02-15T05:03:29;13.23;;;8.05;;
67051;SDS011;53957;47.222;18.670;2023-02-15T05:06:33;13.98;;;8.07;;
67051;SDS011;53957;47.222;18.670;2023-02-15T05:09:36;11.73;;;8.77;;
67051;SDS011;53957;47.222;18.670;2023-02-15T05:12:39;9.93;;;7.60;;
67051;SDS011;53957;47.222;18.670;2023-02-15T05:15:46;9.93;;;7.82;;
67051;SDS011;53957;47.222;18.670;2023-02-15T05:18:53;15.15;;;8.13;;
67051;SDS011;53957;47.222;18.670;2023-02-15T05:21:56;13.80;;;9.00;;
67051;SDS011;53957;47.222;18.670;2023-02-15T05:25:00;13.00;;;9.85;;
67051;SDS011;53957;47.222;18.670;2023-02-15T05:28:42;11.38;;;9.23;;
67051;SDS011;53957;47.222;18.670;2023-02-15T05:31:45;12.90;;;10.00;;
67051;SDS011;53957;47.222;18.670;2023-02-15T05:34:49;9.45;;;7.53;;
67051;SDS011;53957;47.222;18.670;2023-02-15T05:37:53;15.18;;;8.98;;
67051;SDS011;53957;47.222;18.670;2023-02-15T05:40:56;17.08;;;10.07;;
67051;SDS011;53957;47.222;18.670;2023-02-15T05:43:59;9.82;;;8.40;;
67051;SDS011;53957;47.222;18.670;2023-02-15T05:47:02;14.95;;;9.70;;
67051;SDS011;53957;47.222;18.670;2023-02-15T05:50:06;17.73;;;9.80;;
67051;SDS011;53957;47.222;18.670;2023-02-15T05:53:09;15.18;;;9.48;;
67051;SDS011;53957;47.222;18.670;2023-02-15T05:56:18;12.05;;;8.77;;
67051;SDS011;53957;47.222;18.670;2023-02-15T05:59:21;12.05;;;8.82;;
67051;SDS011;53957;47.222;18.670;2023-02-15T06:02:24;11.27;;;8.85;;
67051;SDS011;53957;47.222;18.670;2023-02-15T06:05:27;12.15;;;7.57;;
67051;SDS011;53957;47.222;18.670;2023-02-15T06:08:31;12.93;;;9.27;;
67051;SDS011;53957;47.222;18.670;2023-02-15T06:11:56;22.05;;;10.95;;
67051;SDS011;53957;47.222;18.670;2023-02-15T06:15:38;12.88;;;9.88;;
67051;SDS011;53957;47.222;18.670;2023-02-15T06:18:42;17.08;;;10.90;;
67051;SDS011;53957;47.222;18.670;2023-02-15T06:21:45;13.77;;;10.18;;
67051;SDS011;53957;47.222;18.670;2023-02-15T06:25:08;12.60;;;9.02;;
67051;SDS011;53957;47.222;18.670;2023-02-15T06:28:13;16.02;;;9.82;;
67051;SDS011;53957;47.222;18.670;2023-02-15T06:31:16;15.13;;;9.05;;
67051;SDS011;53957;47.222;18.670;2023-02-15T06:34:19;14.77;;;9.40;;
67051;SDS011;53957;47.222;18.670;2023-02-15T06:37:22;16.45;;;11.90;;
67051;SDS011;53957;47.222;18.670;2023-02-15T06:40:25;21.65;;;10.57;;
67051;SDS011;53957;47.222;18.670;2023-02-15T06:43:30;18.23;;;11.32;;
67051;SDS011;53957;47.222;18.670;2023-02-15T06:46:32;24.58;;;13.40;;
67051;SDS011;53957;47.222;18.670;2023-02-15T06:49:36;18.12;;;10.80;;
67051;SDS011;53957;47.222;18.670;2023-02-15T06:52:59;16.58;;;10.13;;
67051;SDS011;53957;47.222;18.670;2023-02-15T06:56:27;14.27;;;9.80;;
67051;SDS011;53957;47.222;18.670;2023-02-15T16:47:50;25.45;;;13.23;;
67051;SDS011;53957;47.222;18.670;2023-02-15T16:51:00;23.90;;;13.88;;
67051;SDS011;53957;47.222;18.670;2023-02-15T16:54:07;24.45;;;14.18;;
67051;SDS011;53957;47.222;18.670;2023-02-15T16:57:19;28.38;;;14.45;;
67051;SDS011;53957;47.222;18.670;2023-02-15T17:00:47;25.02;;;13.55;;
67051;SDS011;53957;47.222;18.670;2023-02-15T17:04:09;21.48;;;13.75;;
67051;SDS011;53957;47.222;18.670;2023-02-15T17:11:17;26.58;;;15.13;;
67051;SDS011;53957;47.222;18.670;2023-02-15T17:14:29;24.35;;;13.70;;
67051;SDS011;53957;47.222;18.670;2023-02-15T17:17:34;23.60;;;11.80;;
67051;SDS011;53957;47.222;18.670;2023-02-15T17:20:38;24.05;;;13.60;;
67051;SDS011;53957;47.222;18.670;2023-02-15T17:23:46;25.42;;;14.23;;
67051;SDS011;53957;47.222;18.670;2023-02-15T17:26:54;134.15;;;44.97;;
67051;SDS011;53957;47.222;18.670;2023-02-15T17:30:21;38.03;;;17.85;;
67051;SDS011;53957;47.222;18.670;2023-02-15T17:33:39;27.77;;;16.25;;
67051;SDS011;53957;47.222;18.670;2023-02-15T17:36:56;26.12;;;15.30;;
67051;SDS011;53957;47.222;18.670;2023-02-15T17:43:42;21.52;;;13.13;;
67051;SDS011;53957;47.222;18.670;2023-02-15T17:46:46;22.23;;;13.55;;
67051;SDS011;53957;47.222;18.670;2023-02-15T17:49:50;29.65;;;15.55;;
67051;SDS011;53957;47.222;18.670;2023-02-15T17:52:58;26.25;;;14.48;;
67051;SDS011;53957;47.222;18.670;2023-02-15T17:56:23;23.55;;;14.98;;
67051;SDS011;53957;47.222;18.670;2023-02-15T17:59:30;42.13;;;17.50;;
67051;SDS011;53957;47.222;18.670;2023-02-15T18:02:38;40.60;;;18.50;;
67051;SDS011;53957;47.222;18.670;2023-02-15T18:06:24;19.05;;;13.25;;
67051;SDS011;53957;47.222;18.670;2023-02-15T18:10:17;21.62;;;12.90;;
67051;SDS011;53957;47.222;18.670;2023-02-15T18:13:42;21.45;;;13.62;;
67051;SDS011;53957;47.222;18.670;2023-02-15T18:16:45;24.92;;;13.73;;
67051;SDS011;53957;47.222;18.670;2023-02-15T18:19:52;21.92;;;13.70;;
67051;SDS011;53957;47.222;18.670;2023-02-15T18:23:02;25.50;;;14.13;;
67051;SDS011;53957;47.222;18.670;2023-02-15T18:26:18;24.55;;;13.85;;
67051;SDS011;53957;47.222;18.670;2023-02-15T18:29:26;23.98;;;13.95;;
67051;SDS011;53957;47.222;18.670;2023-02-15T18:32:35;24.85;;;13.45;;
67051;SDS011;53957;47.222;18.670;2023-02-15T18:35:41;24.10;;;14.07;;
67051;SDS011;53957;47.222;18.670;2023-02-15T18:39:05;28.52;;;13.57;;
67051;SDS011;53957;47.222;18.670;2023-02-15T18:42:42;19.95;;;13.35;;
67051;SDS011;53957;47.222;18.670;2023-02-15T18:45:51;27.08;;;14.48;;
67051;SDS011;53957;47.222;18.670;2023-02-15T18:48:57;22.15;;;13.15;;
67051;SDS011;53957;47.222;18.670;2023-02-15T18:52:04;22.92;;;14.30;;
67051;SDS011;53957;47.222;18.670;2023-02-15T18:55:18;26.10;;;12.95;;
67051;SDS011;53957;47.222;18.670;2023-02-15T18:58:24;23.62;;;15.27;;
67051;SDS011;53957;47.222;18.670;2023-02-15T19:01:29;23.90;;;13.48;;
67051;SDS011;53957;47.222;18.670;2023-02-15T19:04:34;28.05;;;14.48;;
67051;SDS011;53957;47.222;18.670;2023-02-15T19:07:37;27.70;;;15.75;;
67051;SDS011;53957;47.222;18.670;2023-02-15T19:10:42;28.95;;;14.57;;
67051;SDS011;53957;47.222;18.670;2023-02-15T19:13:46;28.73;;;15.70;;
67051;SDS011;53957;47.222;18.670;2023-02-15T19:17:14;31.37;;;15.23;;
67051;SDS011;53957;47.222;18.670;2023-02-15T19:23:25;30.62;;;16.67;;
67051;SDS011;53957;47.222;18.670;2023-02-15T19:26:30;25.85;;;14.38;;
67051;SDS011;53957;47.222;18.670;2023-02-15T19:29:48;30.73;;;15.30;;
67051;SDS011;53957;47.222;18.670;2023-02-15T19:32:58;27.55;;;15.35;;
67051;SDS011;53957;47.222;18.670;2023-02-15T19:36:03;28.73;;;16.77;;
67051;SDS011;53957;47.222;18.670;2023-02-15T19:39:36;24.77;;;14.52;;
67051;SDS011;53957;47.222;18.670;2023-02-15T19:42:42;25.05;;;15.35;;
67051;SDS011;53957;47.222;18.670;2023-02-15T19:45:46;25.45;;;15.93;;
67051;SDS011;53957;47.222;18.670;2023-02-15T19:48:57;28.92;;;17.15;;
67051;SDS011;53957;47.222;18.670;2023-02-15T19:52:05;26.00;;;15.43;;
67051;SDS011;53957;47.222;18.670;2023-02-15T19:55:36;27.73;;;16.08;;
67051;SDS011;53957;47.222;18.670;2023-02-15T19:58:40;23.80;;;15.32;;
67051;SDS011;53957;47.222;18.670;2023-02-15T20:01:47;26.92;;;15.88;;
67051;SDS011;53957;47.222;18.670;2023-02-15T20:04:56;33.25;;;17.10;;
67051;SDS011;53957;47.222;18.670;2023-02-15T20:08:00;39.90;;;15.63;;
67051;SDS011;53957;47.222;18.670;2023-02-15T20:11:11;32.50;;;17.30;;
67051;SDS011;53957;47.222;18.670;2023-02-15T20:14:21;30.00;;;16.70;;
67051;SDS011;53957;47.222;18.670;2023-02-15T20:17:28;23.27;;;15.82;;
67051;SDS011;53957;47.222;18.670;2023-02-15T20:20:36;26.45;;;15.90;;
67051;SDS011;53957;47.222;18.670;2023-02-15T20:24:26;34.78;;;16.45;;
67051;SDS011;53957;47.222;18.670;2023-02-15T20:27:33;32.10;;;17.45;;
67051;SDS011;53957;47.222;18.670;2023-02-15T20:31:01;26.90;;;14.68;;
67051;SDS011;53957;47.222;18.670;2023-02-15T20:34:14;24.12;;;15.18;;
67051;SDS011;53957;47.222;18.670;2023-02-15T20:37:37;27.92;;;16.00;;
67051;SDS011;53957;47.222;18.670;2023-02-15T20:41:03;25.25;;;14.65;;
67051;SDS011;53957;47.222;18.670;2023-02-15T20:44:44;30.50;;;16.87;;
67051;SDS011;53957;47.222;18.670;2023-02-15T20:47:50;34.78;;;18.08;;
67051;SDS011;53957;47.222;18.670;2023-02-15T20:51:01;26.02;;;16.20;;
67051;SDS011;53957;47.222;18.670;2023-02-15T20:54:18;26.70;;;16.83;;
67051;SDS011;53957;47.222;18.670;2023-02-15T20:57:25;33.00;;;18.83;;
67051;SDS011;53957;47.222;18.670;2023-02-15T21:00:30;32.25;;;19.33;;
67051;SDS011;53957;47.222;18.670;2023-02-15T21:03:34;32.35;;;19.95;;
67051;SDS011;53957;47.222;18.670;2023-02-15T21:06:38;31.17;;;18.62;;
67051;SDS011;53957;47.222;18.670;2023-02-15T21:10:02;30.60;;;16.92;;
67051;SDS011;53957;47.222;18.670;2023-02-15T21:13:08;34.20;;;18.77;;
67051;SDS011;53957;47.222;18.670;2023-02-15T21:16:58;30.55;;;17.37;;
67051;SDS011;53957;47.222;18.670;2023-02-15T21:20:02;32.47;;;16.95;;
67051;SDS011;53957;47.222;18.670;2023-02-15T21:23:27;30.00;;;15.70;;
67051;SDS011;53957;47.222;18.670;2023-02-15T21:26:36;30.15;;;18.77;;
67051;SDS011;53957;47.222;18.670;2023-02-15T21:29:47;29.83;;;17.93;;
67051;SDS011;53957;47.222;18.670;2023-02-15T21:33:10;26.40;;;16.98;;
67051;SDS011;53957;47.222;18.670;2023-02-15T21:36:20;25.42;;;16.52;;
67051;SDS011;53957;47.222;18.670;2023-02-15T21:39:26;32.25;;;19.60;;
67051;SDS011;53957;47.222;18.670;2023-02-15T21:42:55;41.90;;;20.25;;
67051;SDS011;53957;47.222;18.670;2023-02-15T21:46:18;33.65;;;18.80;;
67051;SDS011;53957;47.222;18.670;2023-02-15T21:49:41;39.58;;;20.27;;
67051;SDS011;53957;47.222;18.670;2023-02-15T21:52:43;34.90;;;18.83;;
67051;SDS011;53957;47.222;18.670;2023-02-15T21:56:11;36.80;;;20.75;;
67051;SDS011;53957;47.222;18.670;2023-02-15T21:59:35;36.75;;;21.02;;
67051;SDS011;53957;47.222;18.670;2023-02-15T22:03:00;37.38;;;21.02;;
67051;SDS011;53957;47.222;18.670;2023-02-15T22:06:23;46.88;;;22.10;;
67051;SDS011;53957;47.222;18.670;2023-02-15T22:09:27;52.75;;;23.48;;
67051;SDS011;53957;47.222;18.670;2023-02-15T22:13:14;44.03;;;20.67;;
67051;SDS011;53957;47.222;18.670;2023-02-15T22:16:30;48.55;;;26.10;;
67051;SDS011;53957;47.222;18.670;2023-02-15T22:19:54;40.70;;;24.02;;
67051;SDS011;53957;47.222;18.670;2023-02-15T22:23:00;37.58;;;21.85;;
67051;SDS011;53957;47.222;18.670;2023-02-15T22:26:05;36.78;;;21.65;;
67051;SDS011;53957;47.222;18.670;2023-02-15T22:29:19;51.08;;;23.83;;
67051;SDS011;53957;47.222;18.670;2023-02-15T22:32:44;32.10;;;20.15;;
67051;SDS011;53957;47.222;18.670;2023-02-15T22:35:50;37.85;;;20.00;;
67051;SDS011;53957;47.222;18.670;2023-02-15T22:39:34;33.22;;;19.40;;
67051;SDS011;53957;47.222;18.670;2023-02-15T22:42:37;33.28;;;18.87;;
67051;SDS011;53957;47.222;18.670;2023-02-15T22:45:42;35.05;;;19.58;;
67051;SDS011;53957;47.222;18.670;2023-02-15T22:48:46;37.28;;;20.60;;
67051;SDS011;53957;47.222;18.670;2023-02-15T22:51:50;43.10;;;22.27;;
67051;SDS011;53957;47.222;18.670;2023-02-15T22:54:55;35.67;;;19.60;;
67051;SDS011;53957;47.222;18.670;2023-02-15T22:58:20;39.55;;;20.02;;
67051;SDS011;53957;47.222;18.670;2023-02-15T23:01:46;36.22;;;17.77;;
67051;SDS011;53957;47.222;18.670;2023-02-15T23:05:26;35.08;;;18.23;;
67051;SDS011;53957;47.222;18.670;2023-02-15T23:08:31;33.47;;;18.60;;
67051;SDS011;53957;47.222;18.670;2023-02-15T23:11:35;30.80;;;17.23;;
67051;SDS011;53957;47.222;18.670;2023-02-15T23:14:38;37.83;;;20.02;;
67051;SDS011;53957;47.222;18.670;2023-02-15T23:21:35;33.50;;;19.98;;
67051;SDS011;53957;47.222;18.670;2023-02-15T23:24:40;35.47;;;18.20;;
67051;SDS011;53957;47.222;18.670;2023-02-15T23:28:03;25.48;;;17.40;;
67051;SDS011;53957;47.222;18.670;2023-02-15T23:31:13;28.48;;;17.67;;
67051;SDS011;53957;47.222;18.670;2023-02-15T23:34:22;27.75;;;18.75;;
67051;SDS011;53957;47.222;18.670;2023-02-15T23:37:28;28.25;;;19.25;;
67051;SDS011;53957;47.222;18.670;2023-02-15T23:40:33;41.55;;;19.92;;
67051;SDS011;53957;47.222;18.670;2023-02-15T23:43:59;31.40;;;18.58;;
67051;SDS011;53957;47.222;18.670;2023-02-15T23:47:10;33.70;;;20.27;;
67051;SDS011;53957;47.222;18.670;2023-02-15T23:50:23;36.53;;;18.77;;
67051;SDS011;53957;47.222;18.670;2023-02-15T23:53:31;34.72;;;18.08;;
67051;SDS011;53957;47.222;18.670;2023-02-15T23:56:35;26.67;;;15.90;;
67051;SDS011;53957;47.222;18.670;2023-02-15T23:59:40;41.65;;;21.95;;
